KGIC

Idaho County Airport

Grangeville, Idaho, USA
METAR KGIC 182235Z AUTO 34007KT 7SM OVC065 15/13 A3000 RMK AO1 P0001
Observed Flight Rules
Jun-18 @ 22:35 UTC (10 minutes ago) Visual Flight Rules
Wind Visibility Clouds
340° at 7 knots 7 miles
  • Overcast at 6,500' AGL
Temperatures Readings Precipitation
Current 15°C / 59°F
Dewpoint 13°C / 55°F
Humidity 88%
Altimeter 30" Hg
Pressure 1016 hPa
Elevation 1009
Current Rain 0.01
METAR KGIC 182235Z AUTO 34007KT 7SM OVC065 15/13 A3000 RMK AO1 P0001
Observed Flight Rules
Jun-18 @ 22:35 UTC
(10 minutes ago)
VFR
Wind Visibility
340° at 7 knots 7 miles
Clouds
  • Overcast at 6,500' AGL
Temperature Dewpoint
15°C / 59°F 13°C / 55°F
Humidity Altimeter Pressure
88% 30" Hg 1016 hPa
Current Rain
0.01